ドゥアラ の空港の天気 - METARとTAF

ドゥアラ国際空港 ( FKKD / DLA ) - カメルーン ドゥアラ
飛行場実況気象(Metar)
観測時間05/26 01:00 WAT (05/26 00:00 UTC)
風向・風速東南東 1m/s
視程8000m
天気現象
全天の8割程度の雲 雲底高度 400m
少しの雲 雲底高度 490m
気温25℃
湿度100%
気圧1015hPa
METARFKKD 260000Z 11002KT 8000 BKN013 FEW016CB 25/25 Q1015 NOSIG
過去の天気等 Google飛行場航空写真 Wunderground天気予報

過去48時間のMETAR

飛行場予報(TAF)
発表時間: 5/26 00:00 WAT (5/25 23:00 UTC)
予報対象時間: 26日1時 WAT ~ 27日7時 WAT
風向・風速不定 2m/s
視程10km以上
全天の8割程度の雲 雲底高度 400m
少しの積乱雲 雲底高度 490m
26日3時 WAT から 確率 40% で
視程4000m
天気現象雷雨
TAF FKKD 252300Z 2600/2706 VRB03KT 9999 BKN013 FEW016CB
PROB40 2602/2607 4000 TSRA